createdAt,value
2022-08-26T00:01:10.654Z,70.62
2022-08-26T00:03:37.203Z,70.69
2022-08-26T00:06:07.104Z,70.97
2022-08-26T00:08:35.812Z,71.17
2022-08-26T00:11:05.322Z,70.86
2022-08-26T00:13:33.038Z,70.01
2022-08-26T00:16:01.011Z,70.83
2022-08-26T00:18:29.273Z,70.94
2022-08-26T00:20:59.945Z,71.63
2022-08-26T00:23:33.284Z,70.48
2022-08-26T00:26:00.543Z,70.68
2022-08-26T00:28:28.127Z,70.20
2022-08-26T00:30:54.995Z,70.40
2022-08-26T00:33:22.978Z,70.24
2022-08-26T00:35:49.987Z,69.96
2022-08-26T00:38:18.719Z,70.06
2022-08-26T00:40:48.624Z,70.23
2022-08-26T00:43:15.986Z,71.17
2022-08-26T00:45:52.829Z,70.49
2022-08-26T00:48:22.632Z,70.38
2022-08-26T00:50:54.759Z,70.32
2022-08-26T00:53:25.974Z,70.58
2022-08-26T00:56:00.299Z,71.35
2022-08-26T00:58:28.111Z,71.09
2022-08-26T01:00:55.217Z,70.23
2022-08-26T01:03:25.681Z,69.72
2022-08-26T01:05:56.979Z,70.44
2022-08-26T01:08:24.430Z,68.68
2022-08-26T01:10:52.418Z,70.10
2022-08-26T01:13:23.113Z,70.76
2022-08-26T01:15:55.241Z,70.21
2022-08-26T01:18:22.259Z,70.50
2022-08-26T01:21:19.239Z,71.27
2022-08-26T01:23:49.878Z,70.65
2022-08-26T01:26:20.049Z,71.46
2022-08-26T01:28:50.641Z,71.78
2022-08-26T01:31:24.722Z,72.64
2022-08-26T01:34:20.101Z,73.02
2022-08-26T01:36:51.405Z,71.85
2022-08-26T01:39:19.202Z,71.34
2022-08-26T01:41:47.558Z,72.02
2022-08-26T01:44:22.462Z,71.27
2022-08-26T01:46:51.351Z,71.56
2022-08-26T01:49:19.242Z,71.48
2022-08-26T01:51:47.835Z,71.24
2022-08-26T01:54:16.113Z,72.01
2022-08-26T01:56:42.842Z,71.55
2022-08-26T01:59:14.409Z,72.47
2022-08-26T02:01:42.005Z,72.43
2022-08-26T02:04:18.919Z,70.77
2022-08-26T02:06:48.382Z,72.10
2022-08-26T02:09:16.327Z,72.00
2022-08-26T02:11:43.413Z,71.70
2022-08-26T02:14:17.011Z,71.76
2022-08-26T02:16:46.923Z,71.42
2022-08-26T02:19:20.033Z,72.19
2022-08-26T02:21:51.173Z,71.96
2022-08-26T02:24:23.661Z,73.47
2022-08-26T02:26:54.921Z,73.63
2022-08-26T02:29:26.466Z,73.14
2022-08-26T02:31:55.787Z,72.73
2022-08-26T02:34:31.020Z,72.67
2022-08-26T02:37:01.168Z,72.59
2022-08-26T02:39:29.490Z,72.42
2022-08-26T02:41:56.415Z,73.50
2022-08-26T02:44:23.055Z,72.91
2022-08-26T02:46:49.623Z,73.68
2022-08-26T02:49:17.009Z,73.92
2022-08-26T02:51:43.949Z,73.04
2022-08-26T02:54:10.535Z,73.50
2022-08-26T02:56:37.419Z,74.02
2022-08-26T02:59:04.225Z,73.29
2022-08-26T03:01:34.236Z,72.70
2022-08-26T03:04:02.811Z,72.93
2022-08-26T03:06:29.905Z,72.70
2022-08-26T03:08:56.505Z,72.66
2022-08-26T03:11:23.825Z,72.99
2022-08-26T03:13:51.990Z,72.15
2022-08-26T03:16:18.893Z,73.01
2022-08-26T03:18:51.997Z,73.50
2022-08-26T03:21:20.377Z,73.66
2022-08-26T03:23:47.736Z,73.19
2022-08-26T03:26:15.357Z,73.45
2022-08-26T03:29:01.671Z,73.88
2022-08-26T03:31:29.864Z,73.60
2022-08-26T03:33:59.782Z,73.92
2022-08-26T03:36:27.121Z,74.27
2022-08-26T03:38:53.785Z,73.99
2022-08-26T03:41:21.288Z,74.00
2022-08-26T03:43:48.603Z,73.06
2022-08-26T03:46:16.387Z,73.04
2022-08-26T03:48:43.425Z,72.92
2022-08-26T03:51:14.455Z,72.88
2022-08-26T03:53:46.277Z,73.56
2022-08-26T03:56:12.830Z,72.72
2022-08-26T03:58:39.810Z,73.26
2022-08-26T04:01:10.063Z,72.55
2022-08-26T04:03:55.946Z,73.36
2022-08-26T04:06:22.523Z,72.72
2022-08-26T04:08:51.026Z,73.28
2022-08-26T04:11:20.160Z,72.56
2022-08-26T04:13:48.379Z,73.04
2022-08-26T04:16:17.623Z,73.63
2022-08-26T04:18:46.684Z,73.29
2022-08-26T04:21:15.333Z,73.05
2022-08-26T04:23:46.929Z,72.24
2022-08-26T04:26:15.224Z,72.50
2022-08-26T04:28:41.849Z,72.11
2022-08-26T04:31:12.372Z,73.45
2022-08-26T04:33:41.838Z,72.82
2022-08-26T04:36:09.237Z,73.77
2022-08-26T04:38:36.156Z,73.37
2022-08-26T04:41:05.436Z,73.81
2022-08-26T04:43:32.260Z,73.52
2022-08-26T04:46:01.924Z,73.95
2022-08-26T04:48:29.648Z,73.43
2022-08-26T04:50:56.355Z,73.03
2022-08-26T04:53:23.143Z,72.26
2022-08-26T04:55:52.395Z,71.96
2022-08-26T04:58:23.211Z,72.61
2022-08-26T05:00:52.645Z,72.60
2022-08-26T05:03:20.889Z,72.23
2022-08-26T05:05:52.183Z,72.22
2022-08-26T05:08:21.040Z,72.71
2022-08-26T05:10:50.832Z,72.70
2022-08-26T05:13:20.564Z,72.51
2022-08-26T05:15:48.477Z,72.64
2022-08-26T05:18:17.428Z,72.22
2022-08-26T05:20:50.899Z,71.63
2022-08-26T05:23:18.209Z,72.53
2022-08-26T05:25:47.286Z,72.93
2022-08-26T05:28:16.143Z,72.32
2022-08-26T05:30:43.042Z,71.67
2022-08-26T05:33:12.089Z,71.97
2022-08-26T05:35:39.352Z,72.88
2022-08-26T05:38:12.946Z,72.37
2022-08-26T05:40:43.296Z,72.42
2022-08-26T05:43:13.346Z,71.47
2022-08-26T05:45:46.109Z,71.95
2022-08-26T05:48:13.978Z,72.05
2022-08-26T05:50:46.781Z,71.16
2022-08-26T05:53:15.070Z,72.69
2022-08-26T05:55:52.287Z,71.70
2022-08-26T05:58:21.104Z,72.68
2022-08-26T06:00:58.624Z,71.97
2022-08-26T06:03:25.377Z,71.54
2022-08-26T06:05:51.905Z,72.31
2022-08-26T06:08:21.078Z,72.16
2022-08-26T06:10:55.739Z,71.59
2022-08-26T06:13:27.497Z,71.26
2022-08-26T06:16:00.088Z,71.78
2022-08-26T06:18:32.719Z,72.39
2022-08-26T06:20:59.748Z,72.17
2022-08-26T06:23:48.209Z,70.82
2022-08-26T06:26:17.309Z,70.32
2022-08-26T06:28:45.505Z,71.29
2022-08-26T06:31:13.192Z,71.17
2022-08-26T06:33:39.902Z,71.05
2022-08-26T06:36:06.810Z,71.95
2022-08-26T06:38:33.702Z,70.57
2022-08-26T06:41:03.141Z,70.98
2022-08-26T06:43:29.659Z,71.44
2022-08-26T06:46:04.996Z,70.68
2022-08-26T06:48:32.313Z,71.46
2022-08-26T06:51:11.966Z,70.77
2022-08-26T06:53:39.583Z,71.27
2022-08-26T06:56:10.252Z,70.52
2022-08-26T06:58:39.189Z,70.35
2022-08-26T07:01:19.697Z,69.73
2022-08-26T07:03:48.769Z,70.58
2022-08-26T07:06:15.730Z,70.39
2022-08-26T07:08:43.197Z,71.07
2022-08-26T07:11:11.400Z,70.76
2022-08-26T07:13:39.759Z,70.93
2022-08-26T07:16:08.914Z,70.61
2022-08-26T07:18:37.110Z,70.21
2022-08-26T07:21:07.935Z,70.93
2022-08-26T07:23:35.637Z,71.04
2022-08-26T07:26:07.368Z,71.53
2022-08-26T07:28:34.807Z,70.78
2022-08-26T07:31:06.198Z,71.00
2022-08-26T07:33:37.282Z,71.56
2022-08-26T07:36:04.194Z,71.53
2022-08-26T07:38:31.382Z,71.09
2022-08-26T07:41:01.933Z,70.65
2022-08-26T07:43:29.429Z,70.48
2022-08-26T07:45:56.406Z,70.12
2022-08-26T07:48:23.920Z,70.64
2022-08-26T07:50:50.960Z,69.84
2022-08-26T07:53:21.279Z,69.73
2022-08-26T07:55:48.717Z,70.37
2022-08-26T07:58:15.631Z,70.00
2022-08-26T08:00:42.416Z,70.22
2022-08-26T08:03:10.545Z,69.16
2022-08-26T08:05:38.327Z,69.36
2022-08-26T08:08:26.713Z,69.29
2022-08-26T08:10:55.648Z,69.42
2022-08-26T08:13:24.256Z,68.87
2022-08-26T08:15:50.975Z,68.90
2022-08-26T08:18:18.121Z,68.51
2022-08-26T08:20:59.258Z,67.98
2022-08-26T08:23:32.551Z,68.79
2022-08-26T08:26:04.950Z,67.68
2022-08-26T08:28:33.066Z,68.95
2022-08-26T08:31:02.220Z,69.41
2022-08-26T08:33:33.646Z,68.65
2022-08-26T08:36:00.712Z,68.89
2022-08-26T08:38:28.377Z,68.77
2022-08-26T08:40:54.904Z,68.73
2022-08-26T08:43:38.684Z,67.92
2022-08-26T08:46:14.029Z,68.17
2022-08-26T08:48:48.992Z,68.23
2022-08-26T08:51:42.387Z,67.49
2022-08-26T08:54:11.141Z,67.52
2022-08-26T08:56:40.802Z,67.43
2022-08-26T08:59:16.507Z,67.50
2022-08-26T09:01:53.889Z,67.48
2022-08-26T09:04:59.233Z,66.87
2022-08-26T09:07:44.332Z,66.49
2022-08-26T09:10:36.775Z,66.08
2022-08-26T09:13:16.821Z,66.84
2022-08-26T09:16:10.000Z,66.60
2022-08-26T09:18:55.408Z,66.22
2022-08-26T09:21:25.271Z,66.52
2022-08-26T09:23:54.899Z,67.09
2022-08-26T09:26:30.728Z,66.73
2022-08-26T09:29:03.974Z,66.59
2022-08-26T09:31:34.211Z,66.22
2022-08-26T09:34:19.359Z,66.43
2022-08-26T09:36:55.356Z,65.95
2022-08-26T09:39:27.909Z,66.17
2022-08-26T09:42:14.148Z,65.38
2022-08-26T09:45:03.544Z,65.54
2022-08-26T09:47:38.082Z,65.72
2022-08-26T09:50:38.979Z,65.90
2022-08-26T09:53:12.955Z,65.16
2022-08-26T09:55:42.061Z,65.49
2022-08-26T09:58:13.790Z,66.34
2022-08-26T10:00:56.533Z,66.17
2022-08-26T10:03:31.478Z,65.99
2022-08-26T10:06:22.990Z,65.36
2022-08-26T10:08:54.184Z,65.92
2022-08-26T10:11:36.830Z,65.67
2022-08-26T10:14:13.525Z,66.15
2022-08-26T10:17:00.239Z,65.94
2022-08-26T10:19:55.864Z,65.51
2022-08-26T10:22:29.177Z,64.16
2022-08-26T10:25:00.029Z,63.69
2022-08-26T10:27:59.560Z,63.10
2022-08-26T10:30:34.585Z,63.14
2022-08-26T10:33:07.680Z,63.08
2022-08-26T10:35:37.596Z,63.84
2022-08-26T10:38:18.385Z,64.13
2022-08-26T10:40:58.950Z,64.38
2022-08-26T10:43:30.994Z,64.17
2022-08-26T10:46:03.514Z,64.30
2022-08-26T10:48:49.108Z,64.04
2022-08-26T10:51:36.438Z,64.10
2022-08-26T10:54:13.470Z,63.73
2022-08-26T10:57:09.682Z,63.33
2022-08-26T10:59:54.306Z,63.23
2022-08-26T11:02:33.549Z,63.26
2022-08-26T11:05:05.495Z,62.83
2022-08-26T11:07:35.474Z,62.91
2022-08-26T11:10:04.454Z,62.53
2022-08-26T11:12:37.504Z,62.44
2022-08-26T11:15:10.176Z,62.23
2022-08-26T11:18:02.701Z,62.21
2022-08-26T11:20:42.278Z,62.09
2022-08-26T11:23:22.440Z,61.79
2022-08-26T11:26:01.220Z,62.08
2022-08-26T11:28:56.140Z,62.38
2022-08-26T11:31:25.783Z,62.71
2022-08-26T11:33:59.597Z,63.66
2022-08-26T11:36:46.913Z,63.72
2022-08-26T11:39:36.833Z,63.64
2022-08-26T11:42:25.402Z,63.68
2022-08-26T11:44:57.929Z,64.14
2022-08-26T11:47:32.059Z,64.10
2022-08-26T11:50:26.434Z,64.14
2022-08-26T11:53:04.410Z,63.64
2022-08-26T11:55:37.220Z,63.77
2022-08-26T11:58:05.745Z,62.99
2022-08-26T12:00:47.512Z,63.03
2022-08-26T12:03:31.982Z,62.77
2022-08-26T12:05:58.801Z,62.30
2022-08-26T12:08:29.348Z,61.92
2022-08-26T12:11:09.302Z,62.74
2022-08-26T12:13:39.178Z,62.41
2022-08-26T12:16:06.915Z,62.01
2022-08-26T12:18:39.545Z,61.90
2022-08-26T12:21:22.107Z,61.73
2022-08-26T12:23:54.827Z,61.80
2022-08-26T12:26:32.374Z,62.27
2022-08-26T12:29:20.362Z,62.08
2022-08-26T12:32:06.525Z,62.10
2022-08-26T12:34:34.140Z,62.21
2022-08-26T12:37:00.870Z,62.20
2022-08-26T12:39:33.358Z,62.48
2022-08-26T12:42:02.260Z,62.65
2022-08-26T12:44:41.897Z,62.14
2022-08-26T12:47:43.559Z,62.05
2022-08-26T12:50:17.449Z,61.50
2022-08-26T12:52:52.001Z,62.08
2022-08-26T12:55:27.688Z,61.92
2022-08-26T12:58:24.557Z,61.63
2022-08-26T13:00:52.650Z,61.26
2022-08-26T13:03:29.736Z,61.52
2022-08-26T13:06:30.034Z,61.31
2022-08-26T13:08:59.364Z,61.43
2022-08-26T13:14:15.523Z,61.10
2022-08-26T13:16:50.881Z,61.09
2022-08-26T13:19:22.687Z,60.85
2022-08-26T13:21:55.632Z,60.30
2022-08-26T13:24:45.948Z,60.82
2022-08-26T13:27:14.738Z,61.64
2022-08-26T13:29:41.674Z,61.68
2022-08-26T13:32:10.121Z,61.97
2022-08-26T13:34:39.440Z,62.44
2022-08-26T13:37:06.874Z,63.22
2022-08-26T13:39:33.574Z,63.35
2022-08-26T13:42:00.408Z,64.49
2022-08-26T13:44:27.418Z,65.99
2022-08-26T13:46:54.755Z,67.04
2022-08-26T13:49:21.417Z,66.57
2022-08-26T13:51:48.059Z,66.60
2022-08-26T13:54:15.936Z,67.18
2022-08-26T13:56:42.541Z,66.25
2022-08-26T13:59:09.137Z,65.89
2022-08-26T14:01:36.361Z,66.37
2022-08-26T14:04:03.597Z,66.20
2022-08-26T14:06:30.688Z,66.11
2022-08-26T14:08:58.018Z,65.85
2022-08-26T14:11:25.012Z,65.31
2022-08-26T14:13:51.978Z,65.79
2022-08-26T14:16:27.213Z,65.15
2022-08-26T14:18:54.186Z,65.38
2022-08-26T14:21:21.282Z,64.31
2022-08-26T14:23:48.024Z,63.58
2022-08-26T14:26:28.425Z,63.87
2022-08-26T14:28:56.567Z,64.76
2022-08-26T14:31:24.219Z,63.85
2022-08-26T14:33:50.939Z,65.01
2022-08-26T14:36:30.962Z,65.98
2022-08-26T14:39:02.058Z,64.94
2022-08-26T14:41:30.237Z,66.40
2022-08-26T14:44:10.658Z,66.00
2022-08-26T14:46:43.326Z,65.60
2022-08-26T14:49:10.847Z,66.39
2022-08-26T14:51:38.650Z,63.89
2022-08-26T14:54:14.593Z,63.50
2022-08-26T14:56:54.049Z,63.65
2022-08-26T14:59:28.677Z,64.30
2022-08-26T15:01:56.586Z,64.97
2022-08-26T15:04:24.668Z,64.62
2022-08-26T15:06:53.512Z,62.89
2022-08-26T15:09:20.512Z,63.20
2022-08-26T15:11:47.989Z,63.71
2022-08-26T15:14:19.315Z,64.45
2022-08-26T15:16:48.103Z,62.06
2022-08-26T15:19:15.491Z,62.55
2022-08-26T15:21:42.700Z,62.19
2022-08-26T15:24:09.437Z,63.55
2022-08-26T15:26:35.978Z,62.69
2022-08-26T15:29:05.051Z,63.28
2022-08-26T15:31:33.815Z,63.43
2022-08-26T15:34:04.037Z,61.98
2022-08-26T15:36:32.104Z,60.70
2022-08-26T15:39:01.199Z,62.15
2022-08-26T15:41:28.981Z,61.23
2022-08-26T15:43:55.817Z,59.86
2022-08-26T15:46:23.062Z,59.52
2022-08-26T15:48:49.789Z,60.29
2022-08-26T15:51:25.509Z,59.04
2022-08-26T15:53:55.359Z,58.33
2022-08-26T15:56:28.072Z,56.71
2022-08-26T15:58:56.376Z,57.00
2022-08-26T16:01:27.370Z,56.73
2022-08-26T16:03:55.652Z,58.42
2022-08-26T16:06:25.729Z,58.17
2022-08-26T16:08:52.256Z,59.73
2022-08-26T16:11:19.989Z,58.64
2022-08-26T16:13:47.796Z,59.33
2022-08-26T16:16:15.504Z,60.34
2022-08-26T16:18:43.109Z,58.87
2022-08-26T16:21:16.063Z,59.65
2022-08-26T16:23:45.103Z,60.69
2022-08-26T16:26:18.250Z,60.59
2022-08-26T16:28:45.028Z,61.03
2022-08-26T16:31:12.562Z,60.47
2022-08-26T16:33:39.571Z,60.87
2022-08-26T16:36:07.175Z,61.72
2022-08-26T16:38:34.929Z,61.15
2022-08-26T16:41:02.342Z,60.98
2022-08-26T16:43:28.927Z,61.38
2022-08-26T16:45:56.130Z,61.25
2022-08-26T16:48:23.747Z,62.23
2022-08-26T16:50:51.183Z,62.38
2022-08-26T16:53:18.989Z,61.89
2022-08-26T16:55:47.688Z,62.45
2022-08-26T16:58:14.742Z,62.40
2022-08-26T17:00:41.436Z,61.88
2022-08-26T17:03:08.617Z,62.05
2022-08-26T17:05:35.333Z,62.75
2022-08-26T17:08:02.829Z,62.79
2022-08-26T17:10:30.268Z,62.67
2022-08-26T17:12:57.257Z,62.56
2022-08-26T17:15:24.330Z,62.17
2022-08-26T17:17:52.076Z,62.88
2022-08-26T17:20:20.066Z,62.65
2022-08-26T17:22:49.684Z,64.22
2022-08-26T17:25:22.543Z,62.34
2022-08-26T17:27:49.180Z,62.48
2022-08-26T17:30:17.830Z,62.20
2022-08-26T17:32:45.197Z,62.89
2022-08-26T17:35:13.582Z,62.66
2022-08-26T17:37:40.504Z,63.82
2022-08-26T17:40:09.991Z,62.86
2022-08-26T17:42:38.708Z,62.78
2022-08-26T17:45:06.112Z,63.26
2022-08-26T17:47:34.149Z,63.44
2022-08-26T17:50:04.010Z,63.17
2022-08-26T17:52:30.728Z,63.30
2022-08-26T17:54:57.484Z,62.51
2022-08-26T17:57:25.947Z,63.17
2022-08-26T17:59:53.641Z,62.86
2022-08-26T18:02:21.491Z,63.31
2022-08-26T18:04:48.580Z,63.91
2022-08-26T18:07:16.527Z,63.54
2022-08-26T18:09:43.654Z,63.01
2022-08-26T18:12:10.960Z,62.39
2022-08-26T18:14:37.576Z,62.55
2022-08-26T18:17:04.855Z,63.26
2022-08-26T18:19:31.558Z,62.89
2022-08-26T18:21:58.711Z,62.07
2022-08-26T18:24:25.725Z,61.96
2022-08-26T18:26:52.329Z,62.57
2022-08-26T18:29:19.622Z,62.76
2022-08-26T18:31:46.909Z,62.27
2022-08-26T18:34:15.463Z,62.04
2022-08-26T18:36:43.710Z,62.30
2022-08-26T18:39:13.015Z,62.94
2022-08-26T18:41:43.101Z,62.51
2022-08-26T18:44:13.604Z,61.77
2022-08-26T18:46:41.710Z,62.90
2022-08-26T18:49:09.702Z,62.95
2022-08-26T18:51:37.885Z,62.63
2022-08-26T18:54:07.143Z,62.42
2022-08-26T18:56:35.563Z,62.46
2022-08-26T18:59:03.285Z,62.96
2022-08-26T19:01:31.428Z,62.12
2022-08-26T19:04:00.051Z,62.94
2022-08-26T19:06:28.215Z,61.82
2022-08-26T19:08:55.701Z,62.01
2022-08-26T19:11:32.122Z,62.92
2022-08-26T19:14:07.920Z,63.22
2022-08-26T19:16:35.431Z,62.20
2022-08-26T19:19:02.306Z,62.61
2022-08-26T19:21:30.305Z,62.72
2022-08-26T19:24:03.645Z,62.72
2022-08-26T19:26:31.258Z,62.83
2022-08-26T19:28:58.391Z,62.03
2022-08-26T19:31:25.166Z,63.32
2022-08-26T19:33:51.980Z,62.34
2022-08-26T19:36:22.092Z,63.40
2022-08-26T19:38:49.222Z,62.82
2022-08-26T19:41:26.559Z,62.91
2022-08-26T19:44:11.101Z,63.09
2022-08-26T19:49:05.215Z,62.79
2022-08-26T19:51:34.212Z,63.38
2022-08-26T19:54:01.448Z,63.21
2022-08-26T19:56:28.584Z,62.88
2022-08-26T19:58:55.973Z,63.25
2022-08-26T20:01:23.057Z,62.93
2022-08-26T20:03:49.900Z,63.20
2022-08-26T20:06:18.583Z,63.02
2022-08-26T20:08:45.706Z,63.50
2022-08-26T20:11:16.196Z,62.79
2022-08-26T20:13:43.562Z,63.33
2022-08-26T20:16:12.306Z,63.20
2022-08-26T20:18:59.057Z,63.44
2022-08-26T20:21:29.611Z,63.20
2022-08-26T20:24:03.422Z,63.13
2022-08-26T20:26:33.047Z,63.66
2022-08-26T20:28:59.617Z,63.37
2022-08-26T20:31:26.809Z,63.14
2022-08-26T20:33:54.211Z,64.03
2022-08-26T20:36:23.339Z,63.22
2022-08-26T20:38:50.450Z,62.71
2022-08-26T20:41:18.109Z,63.48
2022-08-26T20:43:46.241Z,63.29
2022-08-26T20:46:18.134Z,63.34
2022-08-26T20:48:48.259Z,63.12
2022-08-26T20:51:16.217Z,63.22
2022-08-26T20:53:45.436Z,63.29
2022-08-26T20:56:17.135Z,62.80
2022-08-26T20:58:44.774Z,63.59
2022-08-26T21:01:19.149Z,63.92
2022-08-26T21:03:46.415Z,63.19
2022-08-26T21:06:13.304Z,63.99
2022-08-26T21:08:43.353Z,63.38
2022-08-26T21:11:11.587Z,63.45
2022-08-26T21:13:54.446Z,62.83
2022-08-26T21:16:25.621Z,63.30
2022-08-26T21:18:52.668Z,63.58
2022-08-26T21:21:19.616Z,63.51
2022-08-26T21:23:52.112Z,62.22
2022-08-26T21:26:19.152Z,62.46
2022-08-26T21:28:46.349Z,63.12
2022-08-26T21:31:20.638Z,63.84
2022-08-26T21:33:47.404Z,62.56
2022-08-26T21:36:14.916Z,63.97
2022-08-26T21:38:41.720Z,63.07
2022-08-26T21:41:12.873Z,62.75
2022-08-26T21:43:41.614Z,63.58
2022-08-26T21:46:16.695Z,63.00
2022-08-26T21:48:50.980Z,63.36
2022-08-26T21:51:20.258Z,63.61
2022-08-26T21:53:47.404Z,63.19
2022-08-26T21:56:16.008Z,63.77
2022-08-26T21:58:42.977Z,63.31
2022-08-26T22:01:14.940Z,63.97
2022-08-26T22:03:47.616Z,63.72
2022-08-26T22:06:16.369Z,64.12
2022-08-26T22:08:43.047Z,64.41
2022-08-26T22:11:10.373Z,63.05
2022-08-26T22:13:39.716Z,64.04
2022-08-26T22:16:06.886Z,64.97
2022-08-26T22:18:34.160Z,64.88
2022-08-26T22:21:03.318Z,65.09
2022-08-26T22:23:30.285Z,64.81
2022-08-26T22:25:57.605Z,64.99
2022-08-26T22:28:24.374Z,65.33
2022-08-26T22:30:51.003Z,65.09
2022-08-26T22:33:18.205Z,65.41
2022-08-26T22:35:47.980Z,65.65
2022-08-26T22:38:15.461Z,65.37
2022-08-26T22:40:49.166Z,64.55
2022-08-26T22:43:16.305Z,65.57
2022-08-26T22:45:45.793Z,65.54
2022-08-26T22:48:15.769Z,66.08
2022-08-26T22:50:43.996Z,66.08
2022-08-26T22:53:10.735Z,65.49
2022-08-26T22:55:37.760Z,65.47
2022-08-26T22:58:05.389Z,66.09
2022-08-26T23:00:32.797Z,66.75
2022-08-26T23:03:01.012Z,66.46
2022-08-26T23:05:27.782Z,66.37
2022-08-26T23:07:56.373Z,66.70
2022-08-26T23:10:23.902Z,66.93
2022-08-26T23:12:52.369Z,66.62
2022-08-26T23:15:20.543Z,66.89
2022-08-26T23:17:48.357Z,66.36
2022-08-26T23:20:25.737Z,66.21
2022-08-26T23:22:53.509Z,65.99
2022-08-26T23:25:20.585Z,65.92
2022-08-26T23:27:47.276Z,66.08
2022-08-26T23:30:17.840Z,66.14
2022-08-26T23:32:44.476Z,65.57
2022-08-26T23:35:12.441Z,65.07
2022-08-26T23:37:46.174Z,65.99
2022-08-26T23:40:25.490Z,65.91
2022-08-26T23:42:54.029Z,66.29
2022-08-26T23:45:21.976Z,65.48
2022-08-26T23:47:50.732Z,65.25
2022-08-26T23:50:23.026Z,65.04
2022-08-26T23:53:08.827Z,65.80
2022-08-26T23:55:38.390Z,66.27
2022-08-26T23:58:06.365Z,66.92
